sensor_id;sensor_type;location;lat;lon;timestamp;pressure;altitude;pressure_sealevel;temperature;humidity
48644;BME280;34928;37.302;-121.984;2022-07-06T00:09:22;100631.0;;;32.57;27.02
48644;BME280;34928;37.302;-121.984;2022-07-06T00:19:27;100621.0;;;32.21;26.92
48644;BME280;34928;37.302;-121.984;2022-07-06T00:29:32;100618.0;;;32.71;26.90
48644;BME280;34928;37.302;-121.984;2022-07-06T00:39:37;100613.0;;;32.29;26.83
48644;BME280;34928;37.302;-121.984;2022-07-06T00:49:42;100614.0;;;32.19;26.89
48644;BME280;34928;37.302;-121.984;2022-07-06T00:59:47;100611.0;;;32.42;26.89
48644;BME280;34928;37.302;-121.984;2022-07-06T01:09:52;100608.0;;;32.24;26.83
48644;BME280;34928;37.302;-121.984;2022-07-06T01:19:57;100602.0;;;32.32;26.78
48644;BME280;34928;37.302;-121.984;2022-07-06T01:30:02;100604.0;;;32.48;26.82
48644;BME280;34928;37.302;-121.984;2022-07-06T01:40:10;100608.0;;;32.23;26.81
48644;BME280;34928;37.302;-121.984;2022-07-06T01:50:12;100614.0;;;32.29;26.70
48644;BME280;34928;37.302;-121.984;2022-07-06T02:00:17;100624.0;;;32.30;26.62
48644;BME280;34928;37.302;-121.984;2022-07-06T02:10:22;100626.0;;;32.30;26.59
48644;BME280;34928;37.302;-121.984;2022-07-06T02:20:27;100640.0;;;32.44;26.35
48644;BME280;34928;37.302;-121.984;2022-07-06T02:30:32;100653.0;;;32.52;26.43
48644;BME280;34928;37.302;-121.984;2022-07-06T02:40:37;100667.0;;;32.33;26.51
48644;BME280;34928;37.302;-121.984;2022-07-06T02:50:42;100680.0;;;31.97;26.65
48644;BME280;34928;37.302;-121.984;2022-07-06T03:00:47;100693.0;;;32.20;26.38
48644;BME280;34928;37.302;-121.984;2022-07-06T03:10:52;100701.0;;;32.22;26.32
48644;BME280;34928;37.302;-121.984;2022-07-06T03:20:57;100711.0;;;32.30;26.42
48644;BME280;34928;37.302;-121.984;2022-07-06T03:31:02;100715.0;;;32.14;26.24
48644;BME280;34928;37.302;-121.984;2022-07-06T03:41:07;100716.0;;;32.15;26.43
48644;BME280;34928;37.302;-121.984;2022-07-06T03:51:12;100720.0;;;32.44;26.35
48644;BME280;34928;37.302;-121.984;2022-07-06T04:01:17;100722.0;;;32.24;26.28
48644;BME280;34928;37.302;-121.984;2022-07-06T04:11:22;100730.0;;;32.40;26.27
48644;BME280;34928;37.302;-121.984;2022-07-06T04:21:27;100741.0;;;31.86;26.31
48644;BME280;34928;37.302;-121.984;2022-07-06T04:31:32;100756.0;;;32.36;26.23
48644;BME280;34928;37.302;-121.984;2022-07-06T04:41:37;100773.0;;;31.79;26.33
48644;BME280;34928;37.302;-121.984;2022-07-06T04:51:42;100790.0;;;32.02;26.50
48644;BME280;34928;37.302;-121.984;2022-07-06T05:01:47;100804.0;;;32.13;26.29
48644;BME280;34928;37.302;-121.984;2022-07-06T05:11:52;100812.0;;;32.17;26.11
48644;BME280;34928;37.302;-121.984;2022-07-06T05:21:57;100825.0;;;32.19;26.10
48644;BME280;34928;37.302;-121.984;2022-07-06T05:32:02;100833.0;;;32.37;25.77
48644;BME280;34928;37.302;-121.984;2022-07-06T05:42:07;100841.0;;;32.10;25.76
48644;BME280;34928;37.302;-121.984;2022-07-06T05:52:12;100836.0;;;32.15;25.90
48644;BME280;34928;37.302;-121.984;2022-07-06T06:02:17;100840.0;;;32.05;25.73
48644;BME280;34928;37.302;-121.984;2022-07-06T06:12:22;100834.0;;;32.30;25.61
48644;BME280;34928;37.302;-121.984;2022-07-06T06:22:27;100826.0;;;31.96;25.70
48644;BME280;34928;37.302;-121.984;2022-07-06T06:32:32;100822.0;;;32.10;25.74
48644;BME280;34928;37.302;-121.984;2022-07-06T06:42:37;100819.0;;;32.46;25.59
48644;BME280;34928;37.302;-121.984;2022-07-06T06:52:42;100811.0;;;31.97;25.53
48644;BME280;34928;37.302;-121.984;2022-07-06T07:02:47;100799.0;;;31.82;25.71
48644;BME280;34928;37.302;-121.984;2022-07-06T07:12:52;100805.0;;;32.02;25.60
48644;BME280;34928;37.302;-121.984;2022-07-06T07:22:57;100804.0;;;31.80;25.58
48644;BME280;34928;37.302;-121.984;2022-07-06T07:33:02;100801.0;;;31.80;25.54
48644;BME280;34928;37.302;-121.984;2022-07-06T07:43:07;100803.0;;;31.97;25.56
48644;BME280;34928;37.302;-121.984;2022-07-06T07:53:13;100797.0;;;31.65;25.60
48644;BME280;34928;37.302;-121.984;2022-07-06T08:03:17;100794.0;;;31.92;25.34
48644;BME280;34928;37.302;-121.984;2022-07-06T08:13:22;100791.0;;;31.56;25.38
48644;BME280;34928;37.302;-121.984;2022-07-06T08:23:27;100788.0;;;31.73;25.33
48644;BME280;34928;37.302;-121.984;2022-07-06T08:33:32;100791.0;;;31.49;25.46
48644;BME280;34928;37.302;-121.984;2022-07-06T08:43:37;100787.0;;;31.50;25.52
48644;BME280;34928;37.302;-121.984;2022-07-06T08:53:44;100781.0;;;31.65;25.53
48644;BME280;34928;37.302;-121.984;2022-07-06T09:03:49;100781.0;;;31.73;25.41
48644;BME280;34928;37.302;-121.984;2022-07-06T09:13:52;100775.0;;;31.65;25.46
48644;BME280;34928;37.302;-121.984;2022-07-06T09:23:58;100769.0;;;31.57;25.54
48644;BME280;34928;37.302;-121.984;2022-07-06T09:34:04;100768.0;;;31.77;25.41
48644;BME280;34928;37.302;-121.984;2022-07-06T09:44:07;100766.0;;;31.42;25.37
48644;BME280;34928;37.302;-121.984;2022-07-06T09:54:13;100773.0;;;31.45;25.27
48644;BME280;34928;37.302;-121.984;2022-07-06T10:04:18;100777.0;;;31.34;25.39
48644;BME280;34928;37.302;-121.984;2022-07-06T10:14:23;100779.0;;;31.53;25.43
48644;BME280;34928;37.302;-121.984;2022-07-06T10:24:28;100775.0;;;31.28;25.47
48644;BME280;34928;37.302;-121.984;2022-07-06T10:34:33;100776.0;;;31.54;25.48
48644;BME280;34928;37.302;-121.984;2022-07-06T10:44:45;100767.0;;;31.45;25.47
48644;BME280;34928;37.302;-121.984;2022-07-06T10:54:56;100765.0;;;31.47;25.44
48644;BME280;34928;37.302;-121.984;2022-07-06T11:05:02;100766.0;;;31.39;25.49
48644;BME280;34928;37.302;-121.984;2022-07-06T11:15:12;100771.0;;;31.34;25.42
48644;BME280;34928;37.302;-121.984;2022-07-06T11:25:32;100774.0;;;31.42;25.36
48644;BME280;34928;37.302;-121.984;2022-07-06T11:35:37;100775.0;;;31.36;25.38
48644;BME280;34928;37.302;-121.984;2022-07-06T11:45:42;100776.0;;;30.88;25.35
48644;BME280;34928;37.302;-121.984;2022-07-06T11:55:47;100780.0;;;31.12;25.42
48644;BME280;34928;37.302;-121.984;2022-07-06T12:05:52;100780.0;;;31.12;25.42
48644;BME280;34928;37.302;-121.984;2022-07-06T12:15:57;100782.0;;;31.37;25.36
48644;BME280;34928;37.302;-121.984;2022-07-06T12:26:13;100782.0;;;30.83;25.36
48644;BME280;34928;37.302;-121.984;2022-07-06T12:36:17;100782.0;;;31.00;25.47
48644;BME280;34928;37.302;-121.984;2022-07-06T12:46:31;100786.0;;;30.75;25.37
48644;BME280;34928;37.302;-121.984;2022-07-06T12:56:37;100798.0;;;31.20;25.20
48644;BME280;34928;37.302;-121.984;2022-07-06T13:06:57;100809.0;;;30.80;25.28
48644;BME280;34928;37.302;-121.984;2022-07-06T13:17:02;100814.0;;;31.00;25.28
48644;BME280;34928;37.302;-121.984;2022-07-06T13:27:08;100814.0;;;30.96;25.26
48644;BME280;34928;37.302;-121.984;2022-07-06T13:37:12;100829.0;;;30.81;25.36
48644;BME280;34928;37.302;-121.984;2022-07-06T13:47:17;100837.0;;;31.01;25.31
48644;BME280;34928;37.302;-121.984;2022-07-06T13:57:22;100837.0;;;30.80;25.25
48644;BME280;34928;37.302;-121.984;2022-07-06T14:07:27;100853.0;;;30.50;25.21
48644;BME280;34928;37.302;-121.984;2022-07-06T14:17:32;100869.0;;;30.73;25.19
48644;BME280;34928;37.302;-121.984;2022-07-06T14:27:37;100873.0;;;30.91;24.95
48644;BME280;34928;37.302;-121.984;2022-07-06T14:37:42;100879.0;;;30.87;24.85
48644;BME280;34928;37.302;-121.984;2022-07-06T14:47:47;100886.0;;;30.65;24.77
48644;BME280;34928;37.302;-121.984;2022-07-06T14:57:52;100900.0;;;30.83;24.72
48644;BME280;34928;37.302;-121.984;2022-07-06T15:07:57;100899.0;;;30.60;25.01
48644;BME280;34928;37.302;-121.984;2022-07-06T15:18:02;100907.0;;;30.53;24.89
48644;BME280;34928;37.302;-121.984;2022-07-06T15:28:07;100914.0;;;30.61;24.75
48644;BME280;34928;37.302;-121.984;2022-07-06T15:38:12;100911.0;;;30.49;24.86
48644;BME280;34928;37.302;-121.984;2022-07-06T15:48:17;100919.0;;;30.71;24.76
48644;BME280;34928;37.302;-121.984;2022-07-06T15:58:22;100919.0;;;30.72;24.76
48644;BME280;34928;37.302;-121.984;2022-07-06T16:08:27;100923.0;;;30.71;24.70
48644;BME280;34928;37.302;-121.984;2022-07-06T16:18:32;100919.0;;;30.71;24.66
48644;BME280;34928;37.302;-121.984;2022-07-06T16:28:38;100918.0;;;30.65;24.88
48644;BME280;34928;37.302;-121.984;2022-07-06T16:38:42;100914.0;;;30.41;24.80
48644;BME280;34928;37.302;-121.984;2022-07-06T16:48:47;100906.0;;;30.66;24.62
48644;BME280;34928;37.302;-121.984;2022-07-06T16:58:52;100911.0;;;30.70;24.73
48644;BME280;34928;37.302;-121.984;2022-07-06T17:08:57;100901.0;;;30.71;24.71
48644;BME280;34928;37.302;-121.984;2022-07-06T17:19:02;100904.0;;;30.80;24.71
48644;BME280;34928;37.302;-121.984;2022-07-06T17:29:07;100899.0;;;30.79;24.61
48644;BME280;34928;37.302;-121.984;2022-07-06T17:39:12;100892.0;;;30.69;24.84
48644;BME280;34928;37.302;-121.984;2022-07-06T17:49:17;100891.0;;;30.63;25.10
48644;BME280;34928;37.302;-121.984;2022-07-06T17:59:22;100899.0;;;30.76;24.90
48644;BME280;34928;37.302;-121.984;2022-07-06T18:09:27;100903.0;;;30.59;24.97
48644;BME280;34928;37.302;-121.984;2022-07-06T18:19:32;100905.0;;;30.80;25.34
48644;BME280;34928;37.302;-121.984;2022-07-06T18:29:37;100904.0;;;30.92;25.00
48644;BME280;34928;37.302;-121.984;2022-07-06T18:39:42;100902.0;;;30.71;25.19
48644;BME280;34928;37.302;-121.984;2022-07-06T18:49:47;100900.0;;;30.97;25.28
48644;BME280;34928;37.302;-121.984;2022-07-06T18:59:52;100894.0;;;31.05;25.15
48644;BME280;34928;37.302;-121.984;2022-07-06T19:09:57;100892.0;;;31.07;25.34
48644;BME280;34928;37.302;-121.984;2022-07-06T19:20:02;100885.0;;;30.94;25.35
48644;BME280;34928;37.302;-121.984;2022-07-06T19:30:08;100879.0;;;31.22;25.47
48644;BME280;34928;37.302;-121.984;2022-07-06T19:40:13;100873.0;;;31.05;25.40
48644;BME280;34928;37.302;-121.984;2022-07-06T19:50:17;100873.0;;;31.40;25.37
48644;BME280;34928;37.302;-121.984;2022-07-06T20:00:22;100875.0;;;31.23;25.40
48644;BME280;34928;37.302;-121.984;2022-07-06T20:10:27;100870.0;;;31.14;25.64
48644;BME280;34928;37.302;-121.984;2022-07-06T20:20:32;100858.0;;;31.29;25.54
48644;BME280;34928;37.302;-121.984;2022-07-06T20:30:37;100852.0;;;31.29;25.63
48644;BME280;34928;37.302;-121.984;2022-07-06T20:40:42;100847.0;;;31.16;25.57
48644;BME280;34928;37.302;-121.984;2022-07-06T20:50:47;100838.0;;;31.27;25.56
48644;BME280;34928;37.302;-121.984;2022-07-06T21:00:52;100833.0;;;31.57;25.58
48644;BME280;34928;37.302;-121.984;2022-07-06T21:10:57;100830.0;;;31.68;25.55
48644;BME280;34928;37.302;-121.984;2022-07-06T21:21:02;100821.0;;;31.48;25.47
48644;BME280;34928;37.302;-121.984;2022-07-06T21:31:07;100821.0;;;31.44;25.59
48644;BME280;34928;37.302;-121.984;2022-07-06T21:41:12;100825.0;;;31.59;25.51
48644;BME280;34928;37.302;-121.984;2022-07-06T21:51:17;100815.0;;;31.64;25.50
48644;BME280;34928;37.302;-121.984;2022-07-06T22:01:23;100816.0;;;31.54;25.44
48644;BME280;34928;37.302;-121.984;2022-07-06T22:11:27;100818.0;;;31.63;25.45
48644;BME280;34928;37.302;-121.984;2022-07-06T22:21:33;100811.0;;;31.72;25.40
48644;BME280;34928;37.302;-121.984;2022-07-06T22:31:37;100801.0;;;31.97;25.38
48644;BME280;34928;37.302;-121.984;2022-07-06T22:41:42;100806.0;;;31.76;25.43
48644;BME280;34928;37.302;-121.984;2022-07-06T22:51:47;100813.0;;;31.66;25.30
48644;BME280;34928;37.302;-121.984;2022-07-06T23:01:52;100811.0;;;31.96;25.28
48644;BME280;34928;37.302;-121.984;2022-07-06T23:11:57;100819.0;;;32.12;25.14
48644;BME280;34928;37.302;-121.984;2022-07-06T23:22:02;100810.0;;;32.37;25.15
48644;BME280;34928;37.302;-121.984;2022-07-06T23:32:08;100811.0;;;32.13;25.14
48644;BME280;34928;37.302;-121.984;2022-07-06T23:42:12;100807.0;;;32.06;25.30
48644;BME280;34928;37.302;-121.984;2022-07-06T23:52:17;100802.0;;;32.04;25.09
